Air Navigation Services of Czech Republic
Airport: LKTB Updated:  22.06.2017 23:38:10  UTC
 METAR LKTB 22.06. 23:30 ...
METAR LKTB 222330Z 33014KT 9999 VCSH FEW040TCU 21/16 Q1011 NOSIG RMK REG QNH 1007=
 TAF LKTB 22.06. 23:00 ...
TAF LKTB 222300Z 2300/2406 30008KT 9999 SCT040      TEMPO 2300/2314 7000 SHRA BKN030      PROB30 TEMPO 2300/2311 30016G28KT 3000 TSRA BKN030CB      BECMG 2321/2323 VRB02KT CAVOK=